Howard Beach, New York
Current Conditions -  °F | °C
As of 8:51 AM on Saturday 20 Dec 2014 (Local Time) from KJFK Reporting Station
Overcast Overcast  
Wind Chill: 24°   Ceiling: 2600
Heat Index: 32°   Visibility: 10mi
Dew Point: 19°   Wind: 9mph
Humidity: 59%   Direction: 360°N
Pressure: 30.3"   Gusts: NA
Location:  40.66°N, 73.84°W
Report Text: KJFK 201351Z 36008KT 10SM OVC026 00/M07 A3030 RMK AO2 SLP258 T00001072 $
Loading
Personal Weather Stations






























Interactive Weather Map New forecast layout! Learn more

10-Day Weather Forecast

Advertisements
Track Severe Weather on mobile